sensor_id;sensor_type;location;lat;lon;timestamp;P1;durP1;ratioP1;P2;durP2;ratioP2
59974;SDS011;62136;-35.664;-63.766;2023-02-12T00:00:13;3.03;;;2.80;;
59974;SDS011;62136;-35.664;-63.766;2023-02-12T00:02:41;3.10;;;2.80;;
59974;SDS011;62136;-35.664;-63.766;2023-02-12T00:05:08;3.78;;;3.08;;
59974;SDS011;62136;-35.664;-63.766;2023-02-12T00:07:35;3.88;;;2.85;;
59974;SDS011;62136;-35.664;-63.766;2023-02-12T00:10:02;3.25;;;3.00;;
59974;SDS011;62136;-35.664;-63.766;2023-02-12T00:12:29;3.75;;;2.75;;
59974;SDS011;62136;-35.664;-63.766;2023-02-12T00:14:56;3.08;;;2.78;;
59974;SDS011;62136;-35.664;-63.766;2023-02-12T00:17:23;3.60;;;2.83;;
59974;SDS011;62136;-35.664;-63.766;2023-02-12T00:19:50;3.25;;;2.90;;
59974;SDS011;62136;-35.664;-63.766;2023-02-12T00:22:17;3.20;;;2.90;;
59974;SDS011;62136;-35.664;-63.766;2023-02-12T00:24:44;3.15;;;2.80;;
59974;SDS011;62136;-35.664;-63.766;2023-02-12T00:27:11;4.63;;;3.17;;
59974;SDS011;62136;-35.664;-63.766;2023-02-12T00:29:39;3.60;;;3.30;;
59974;SDS011;62136;-35.664;-63.766;2023-02-12T00:32:06;3.20;;;2.90;;
59974;SDS011;62136;-35.664;-63.766;2023-02-12T00:34:33;3.42;;;3.08;;
59974;SDS011;62136;-35.664;-63.766;2023-02-12T00:37:00;3.58;;;2.90;;
59974;SDS011;62136;-35.664;-63.766;2023-02-12T00:39:27;3.58;;;3.10;;
59974;SDS011;62136;-35.664;-63.766;2023-02-12T00:41:54;3.55;;;3.28;;
59974;SDS011;62136;-35.664;-63.766;2023-02-12T00:44:21;3.53;;;3.22;;
59974;SDS011;62136;-35.664;-63.766;2023-02-12T00:46:48;3.78;;;3.28;;
59974;SDS011;62136;-35.664;-63.766;2023-02-12T00:49:15;3.17;;;2.88;;
59974;SDS011;62136;-35.664;-63.766;2023-02-12T00:51:44;3.40;;;3.10;;
59974;SDS011;62136;-35.664;-63.766;2023-02-12T00:54:11;3.40;;;3.10;;
59974;SDS011;62136;-35.664;-63.766;2023-02-12T00:56:39;3.60;;;3.30;;
59974;SDS011;62136;-35.664;-63.766;2023-02-12T00:59:06;3.35;;;3.15;;
59974;SDS011;62136;-35.664;-63.766;2023-02-12T01:01:33;3.42;;;3.13;;
59974;SDS011;62136;-35.664;-63.766;2023-02-12T01:04:00;3.88;;;3.42;;
59974;SDS011;62136;-35.664;-63.766;2023-02-12T01:06:27;3.70;;;3.40;;
59974;SDS011;62136;-35.664;-63.766;2023-02-12T01:08:54;3.47;;;3.17;;
59974;SDS011;62136;-35.664;-63.766;2023-02-12T01:11:21;3.85;;;3.33;;
59974;SDS011;62136;-35.664;-63.766;2023-02-12T01:16:22;3.72;;;3.45;;
59974;SDS011;62136;-35.664;-63.766;2023-02-12T01:18:51;4.53;;;3.28;;
59974;SDS011;62136;-35.664;-63.766;2023-02-12T01:21:20;3.67;;;3.38;;
59974;SDS011;62136;-35.664;-63.766;2023-02-12T01:23:54;4.30;;;3.80;;
59974;SDS011;62136;-35.664;-63.766;2023-02-12T01:26:22;4.22;;;3.70;;
59974;SDS011;62136;-35.664;-63.766;2023-02-12T01:28:51;3.83;;;3.53;;
59974;SDS011;62136;-35.664;-63.766;2023-02-12T01:31:22;4.57;;;4.00;;
59974;SDS011;62136;-35.664;-63.766;2023-02-12T01:33:51;4.18;;;3.20;;
59974;SDS011;62136;-35.664;-63.766;2023-02-12T01:36:20;3.83;;;3.47;;
59974;SDS011;62136;-35.664;-63.766;2023-02-12T01:38:47;4.07;;;3.78;;
59974;SDS011;62136;-35.664;-63.766;2023-02-12T01:41:22;5.20;;;3.63;;
59974;SDS011;62136;-35.664;-63.766;2023-02-12T01:46:32;4.50;;;3.97;;
59974;SDS011;62136;-35.664;-63.766;2023-02-12T01:48:59;4.25;;;3.85;;
59974;SDS011;62136;-35.664;-63.766;2023-02-12T01:51:28;4.43;;;4.00;;
59974;SDS011;62136;-35.664;-63.766;2023-02-12T01:53:57;5.25;;;3.90;;
59974;SDS011;62136;-35.664;-63.766;2023-02-12T01:56:28;4.47;;;4.05;;
59974;SDS011;62136;-35.664;-63.766;2023-02-12T01:58:56;4.63;;;4.00;;
59974;SDS011;62136;-35.664;-63.766;2023-02-12T02:01:24;3.67;;;3.38;;
59974;SDS011;62136;-35.664;-63.766;2023-02-12T02:03:54;4.50;;;4.10;;
59974;SDS011;62136;-35.664;-63.766;2023-02-12T02:06:27;4.93;;;4.45;;
59974;SDS011;62136;-35.664;-63.766;2023-02-12T02:09:16;4.88;;;4.43;;
59974;SDS011;62136;-35.664;-63.766;2023-02-12T02:11:44;4.32;;;3.92;;
59974;SDS011;62136;-35.664;-63.766;2023-02-12T02:14:29;4.88;;;4.38;;
59974;SDS011;62136;-35.664;-63.766;2023-02-12T02:33:50;4.90;;;4.45;;
59974;SDS011;62136;-35.664;-63.766;2023-02-12T02:39:18;4.88;;;4.38;;
59974;SDS011;62136;-35.664;-63.766;2023-02-12T02:44:52;5.32;;;4.82;;
59974;SDS011;62136;-35.664;-63.766;2023-02-12T02:50:19;5.38;;;4.60;;
59974;SDS011;62136;-35.664;-63.766;2023-02-12T02:52:48;5.57;;;5.07;;
59974;SDS011;62136;-35.664;-63.766;2023-02-12T02:55:19;5.38;;;4.88;;
59974;SDS011;62136;-35.664;-63.766;2023-02-12T02:57:51;5.40;;;4.90;;
59974;SDS011;62136;-35.664;-63.766;2023-02-12T03:03:43;6.15;;;5.38;;
59974;SDS011;62136;-35.664;-63.766;2023-02-12T03:06:23;5.80;;;4.82;;
59974;SDS011;62136;-35.664;-63.766;2023-02-12T03:09:16;5.60;;;4.85;;
59974;SDS011;62136;-35.664;-63.766;2023-02-12T03:11:44;5.47;;;4.97;;
59974;SDS011;62136;-35.664;-63.766;2023-02-12T03:14:16;5.57;;;4.90;;
59974;SDS011;62136;-35.664;-63.766;2023-02-12T03:16:56;5.40;;;4.88;;
59974;SDS011;62136;-35.664;-63.766;2023-02-12T03:19:24;6.88;;;4.88;;
59974;SDS011;62136;-35.664;-63.766;2023-02-12T03:22:05;5.32;;;4.82;;
59974;SDS011;62136;-35.664;-63.766;2023-02-12T03:24:39;5.13;;;4.68;;
59974;SDS011;62136;-35.664;-63.766;2023-02-12T03:27:20;8.07;;;5.40;;
59974;SDS011;62136;-35.664;-63.766;2023-02-12T03:29:53;5.95;;;5.03;;
59974;SDS011;62136;-35.664;-63.766;2023-02-12T03:34:52;5.82;;;5.28;;
59974;SDS011;62136;-35.664;-63.766;2023-02-12T03:37:55;6.20;;;5.60;;
59974;SDS011;62136;-35.664;-63.766;2023-02-12T03:41:02;6.13;;;5.53;;
59974;SDS011;62136;-35.664;-63.766;2023-02-12T03:44:30;6.65;;;5.43;;
59974;SDS011;62136;-35.664;-63.766;2023-02-12T03:49:22;6.05;;;5.55;;
59974;SDS011;62136;-35.664;-63.766;2023-02-12T03:52:00;5.45;;;4.72;;
59974;SDS011;62136;-35.664;-63.766;2023-02-12T03:54:28;5.78;;;4.78;;
59974;SDS011;62136;-35.664;-63.766;2023-02-12T03:57:00;5.55;;;5.05;;
59974;SDS011;62136;-35.664;-63.766;2023-02-12T03:59:35;5.75;;;5.20;;
59974;SDS011;62136;-35.664;-63.766;2023-02-12T04:02:04;5.10;;;4.68;;
59974;SDS011;62136;-35.664;-63.766;2023-02-12T04:04:34;5.70;;;5.18;;
59974;SDS011;62136;-35.664;-63.766;2023-02-12T04:07:02;5.57;;;5.07;;
59974;SDS011;62136;-35.664;-63.766;2023-02-12T04:09:32;5.93;;;4.93;;
59974;SDS011;62136;-35.664;-63.766;2023-02-12T04:12:17;5.57;;;5.07;;
59974;SDS011;62136;-35.664;-63.766;2023-02-12T04:17:29;5.30;;;4.80;;
59974;SDS011;62136;-35.664;-63.766;2023-02-12T04:31:54;5.55;;;4.72;;
59974;SDS011;62136;-35.664;-63.766;2023-02-12T04:37:45;5.30;;;4.80;;
59974;SDS011;62136;-35.664;-63.766;2023-02-12T04:40:23;5.63;;;5.13;;
59974;SDS011;62136;-35.664;-63.766;2023-02-12T04:42:51;5.53;;;4.95;;
59974;SDS011;62136;-35.664;-63.766;2023-02-12T04:45:23;5.43;;;4.78;;
59974;SDS011;62136;-35.664;-63.766;2023-02-12T04:47:56;4.95;;;4.55;;
59974;SDS011;62136;-35.664;-63.766;2023-02-12T04:50:24;4.95;;;4.55;;
59974;SDS011;62136;-35.664;-63.766;2023-02-12T04:52:51;5.55;;;4.80;;
59974;SDS011;62136;-35.664;-63.766;2023-02-12T04:55:18;4.90;;;4.40;;
59974;SDS011;62136;-35.664;-63.766;2023-02-12T04:57:46;6.00;;;5.20;;
59974;SDS011;62136;-35.664;-63.766;2023-02-12T05:00:13;5.38;;;4.88;;
59974;SDS011;62136;-35.664;-63.766;2023-02-12T05:02:41;4.80;;;4.25;;
59974;SDS011;62136;-35.664;-63.766;2023-02-12T05:05:08;5.30;;;4.90;;
59974;SDS011;62136;-35.664;-63.766;2023-02-12T05:07:35;5.15;;;4.50;;
59974;SDS011;62136;-35.664;-63.766;2023-02-12T05:10:02;4.97;;;4.57;;
59974;SDS011;62136;-35.664;-63.766;2023-02-12T05:12:29;5.25;;;4.75;;
59974;SDS011;62136;-35.664;-63.766;2023-02-12T05:14:56;4.90;;;4.50;;
59974;SDS011;62136;-35.664;-63.766;2023-02-12T05:17:23;5.75;;;4.95;;
59974;SDS011;62136;-35.664;-63.766;2023-02-12T05:19:50;4.82;;;4.45;;
59974;SDS011;62136;-35.664;-63.766;2023-02-12T05:22:17;5.20;;;4.80;;
59974;SDS011;62136;-35.664;-63.766;2023-02-12T05:24:44;5.88;;;4.50;;
59974;SDS011;62136;-35.664;-63.766;2023-02-12T05:27:27;4.95;;;4.45;;
59974;SDS011;62136;-35.664;-63.766;2023-02-12T05:33:19;4.85;;;4.45;;
59974;SDS011;62136;-35.664;-63.766;2023-02-12T05:35:46;5.05;;;4.55;;
59974;SDS011;62136;-35.664;-63.766;2023-02-12T05:38:13;5.45;;;5.00;;
59974;SDS011;62136;-35.664;-63.766;2023-02-12T05:40:40;4.90;;;4.50;;
59974;SDS011;62136;-35.664;-63.766;2023-02-12T05:43:07;5.35;;;4.85;;
59974;SDS011;62136;-35.664;-63.766;2023-02-12T05:45:34;5.30;;;4.63;;
59974;SDS011;62136;-35.664;-63.766;2023-02-12T05:48:01;4.90;;;4.50;;
59974;SDS011;62136;-35.664;-63.766;2023-02-12T05:50:29;4.85;;;4.45;;
59974;SDS011;62136;-35.664;-63.766;2023-02-12T05:52:59;4.88;;;4.47;;
59974;SDS011;62136;-35.664;-63.766;2023-02-12T05:55:26;5.18;;;4.53;;
59974;SDS011;62136;-35.664;-63.766;2023-02-12T05:57:53;4.55;;;4.15;;
59974;SDS011;62136;-35.664;-63.766;2023-02-12T06:00:20;5.07;;;4.60;;
59974;SDS011;62136;-35.664;-63.766;2023-02-12T06:02:47;5.10;;;4.60;;
59974;SDS011;62136;-35.664;-63.766;2023-02-12T06:05:14;5.45;;;4.72;;
59974;SDS011;62136;-35.664;-63.766;2023-02-12T06:07:42;5.18;;;4.68;;
59974;SDS011;62136;-35.664;-63.766;2023-02-12T06:10:09;4.85;;;4.45;;
59974;SDS011;62136;-35.664;-63.766;2023-02-12T06:12:36;5.13;;;4.65;;
59974;SDS011;62136;-35.664;-63.766;2023-02-12T06:15:03;4.82;;;4.43;;
59974;SDS011;62136;-35.664;-63.766;2023-02-12T06:17:30;4.82;;;4.40;;
59974;SDS011;62136;-35.664;-63.766;2023-02-12T06:19:59;5.22;;;4.30;;
59974;SDS011;62136;-35.664;-63.766;2023-02-12T06:22:27;4.93;;;4.30;;
59974;SDS011;62136;-35.664;-63.766;2023-02-12T06:24:54;5.25;;;4.75;;
59974;SDS011;62136;-35.664;-63.766;2023-02-12T06:27:21;4.88;;;4.47;;
59974;SDS011;62136;-35.664;-63.766;2023-02-12T06:29:48;4.95;;;4.50;;
59974;SDS011;62136;-35.664;-63.766;2023-02-12T06:32:15;5.18;;;4.68;;
59974;SDS011;62136;-35.664;-63.766;2023-02-12T06:34:42;4.82;;;4.43;;
59974;SDS011;62136;-35.664;-63.766;2023-02-12T06:37:09;5.20;;;4.70;;
59974;SDS011;62136;-35.664;-63.766;2023-02-12T06:39:40;5.35;;;4.80;;
59974;SDS011;62136;-35.664;-63.766;2023-02-12T06:42:07;5.07;;;4.43;;
59974;SDS011;62136;-35.664;-63.766;2023-02-12T06:44:34;4.22;;;3.90;;
59974;SDS011;62136;-35.664;-63.766;2023-02-12T06:47:01;5.07;;;4.57;;
59974;SDS011;62136;-35.664;-63.766;2023-02-12T06:49:31;4.85;;;4.45;;
59974;SDS011;62136;-35.664;-63.766;2023-02-12T06:51:58;4.68;;;4.28;;
59974;SDS011;62136;-35.664;-63.766;2023-02-12T06:54:25;4.40;;;4.00;;
59974;SDS011;62136;-35.664;-63.766;2023-02-12T06:56:53;4.43;;;4.00;;
59974;SDS011;62136;-35.664;-63.766;2023-02-12T06:59:19;5.60;;;4.53;;
59974;SDS011;62136;-35.664;-63.766;2023-02-12T07:01:49;4.78;;;4.38;;
59974;SDS011;62136;-35.664;-63.766;2023-02-12T07:04:16;4.68;;;4.28;;
59974;SDS011;62136;-35.664;-63.766;2023-02-12T07:06:43;4.70;;;4.30;;
59974;SDS011;62136;-35.664;-63.766;2023-02-12T07:09:10;4.38;;;4.07;;
59974;SDS011;62136;-35.664;-63.766;2023-02-12T07:11:37;4.88;;;4.13;;
59974;SDS011;62136;-35.664;-63.766;2023-02-12T07:14:05;4.82;;;4.43;;
59974;SDS011;62136;-35.664;-63.766;2023-02-12T07:16:32;4.80;;;4.40;;
59974;SDS011;62136;-35.664;-63.766;2023-02-12T07:18:59;4.50;;;4.20;;
59974;SDS011;62136;-35.664;-63.766;2023-02-12T07:21:26;4.85;;;4.22;;
59974;SDS011;62136;-35.664;-63.766;2023-02-12T07:23:59;4.97;;;4.50;;
59974;SDS011;62136;-35.664;-63.766;2023-02-12T07:26:29;4.57;;;4.18;;
59974;SDS011;62136;-35.664;-63.766;2023-02-12T07:28:56;4.63;;;4.22;;
59974;SDS011;62136;-35.664;-63.766;2023-02-12T07:31:29;5.07;;;4.68;;
59974;SDS011;62136;-35.664;-63.766;2023-02-12T07:33:57;4.93;;;4.35;;
59974;SDS011;62136;-35.664;-63.766;2023-02-12T07:36:27;4.80;;;4.40;;
59974;SDS011;62136;-35.664;-63.766;2023-02-12T07:38:58;4.75;;;4.35;;
59974;SDS011;62136;-35.664;-63.766;2023-02-12T07:41:27;5.18;;;4.68;;
59974;SDS011;62136;-35.664;-63.766;2023-02-12T07:43:56;4.60;;;4.10;;
59974;SDS011;62136;-35.664;-63.766;2023-02-12T07:46:29;4.82;;;4.43;;
59974;SDS011;62136;-35.664;-63.766;2023-02-12T07:49:00;4.35;;;3.95;;
59974;SDS011;62136;-35.664;-63.766;2023-02-12T07:51:30;4.70;;;4.20;;
59974;SDS011;62136;-35.664;-63.766;2023-02-12T07:53:58;6.30;;;4.40;;
59974;SDS011;62136;-35.664;-63.766;2023-02-12T07:56:30;5.25;;;4.68;;
59974;SDS011;62136;-35.664;-63.766;2023-02-12T07:59:00;4.80;;;4.22;;
59974;SDS011;62136;-35.664;-63.766;2023-02-12T08:01:30;4.65;;;4.25;;
59974;SDS011;62136;-35.664;-63.766;2023-02-12T08:04:03;5.13;;;4.72;;
59974;SDS011;62136;-35.664;-63.766;2023-02-12T08:06:33;4.80;;;4.40;;
59974;SDS011;62136;-35.664;-63.766;2023-02-12T08:09:03;4.55;;;4.15;;
59974;SDS011;62136;-35.664;-63.766;2023-02-12T08:11:31;4.70;;;4.30;;
59974;SDS011;62136;-35.664;-63.766;2023-02-12T08:13:59;4.70;;;4.15;;
59974;SDS011;62136;-35.664;-63.766;2023-02-12T08:16:27;4.93;;;4.43;;
59974;SDS011;62136;-35.664;-63.766;2023-02-12T08:18:56;4.65;;;4.18;;
59974;SDS011;62136;-35.664;-63.766;2023-02-12T08:21:24;4.90;;;4.40;;
59974;SDS011;62136;-35.664;-63.766;2023-02-12T08:23:53;4.78;;;4.30;;
59974;SDS011;62136;-35.664;-63.766;2023-02-12T08:26:28;4.90;;;4.47;;
59974;SDS011;62136;-35.664;-63.766;2023-02-12T08:28:58;4.75;;;4.32;;
59974;SDS011;62136;-35.664;-63.766;2023-02-12T08:31:27;4.53;;;4.18;;
59974;SDS011;62136;-35.664;-63.766;2023-02-12T08:33:57;4.40;;;3.95;;
59974;SDS011;62136;-35.664;-63.766;2023-02-12T08:36:28;4.03;;;3.72;;
59974;SDS011;62136;-35.664;-63.766;2023-02-12T08:39:00;5.13;;;4.72;;
59974;SDS011;62136;-35.664;-63.766;2023-02-12T08:41:27;5.00;;;4.38;;
59974;SDS011;62136;-35.664;-63.766;2023-02-12T08:43:56;4.60;;;4.07;;
59974;SDS011;62136;-35.664;-63.766;2023-02-12T08:46:26;4.50;;;4.10;;
59974;SDS011;62136;-35.664;-63.766;2023-02-12T08:48:56;4.50;;;4.10;;
59974;SDS011;62136;-35.664;-63.766;2023-02-12T08:51:28;5.07;;;4.07;;
59974;SDS011;62136;-35.664;-63.766;2023-02-12T08:54:05;5.15;;;4.35;;
59974;SDS011;62136;-35.664;-63.766;2023-02-12T08:56:35;4.80;;;4.35;;
59974;SDS011;62136;-35.664;-63.766;2023-02-12T08:59:03;4.97;;;4.57;;
59974;SDS011;62136;-35.664;-63.766;2023-02-12T09:01:32;3.90;;;3.60;;
59974;SDS011;62136;-35.664;-63.766;2023-02-12T09:04:03;4.55;;;4.15;;
59974;SDS011;62136;-35.664;-63.766;2023-02-12T09:06:32;4.85;;;4.45;;
59974;SDS011;62136;-35.664;-63.766;2023-02-12T09:09:00;4.68;;;4.20;;
59974;SDS011;62136;-35.664;-63.766;2023-02-12T09:11:28;4.57;;;4.18;;
59974;SDS011;62136;-35.664;-63.766;2023-02-12T09:13:56;5.35;;;4.22;;
59974;SDS011;62136;-35.664;-63.766;2023-02-12T09:16:30;4.50;;;4.10;;
59974;SDS011;62136;-35.664;-63.766;2023-02-12T09:18:57;4.18;;;3.80;;
59974;SDS011;62136;-35.664;-63.766;2023-02-12T09:21:25;4.25;;;3.85;;
59974;SDS011;62136;-35.664;-63.766;2023-02-12T09:23:52;4.40;;;4.07;;
59974;SDS011;62136;-35.664;-63.766;2023-02-12T09:26:21;4.95;;;4.40;;
59974;SDS011;62136;-35.664;-63.766;2023-02-12T09:28:52;4.80;;;4.40;;
59974;SDS011;62136;-35.664;-63.766;2023-02-12T09:31:21;4.65;;;4.25;;
59974;SDS011;62136;-35.664;-63.766;2023-02-12T09:33:51;4.50;;;4.10;;
59974;SDS011;62136;-35.664;-63.766;2023-02-12T09:36:20;4.72;;;4.22;;
59974;SDS011;62136;-35.664;-63.766;2023-02-12T09:38:47;4.43;;;4.03;;
59974;SDS011;62136;-35.664;-63.766;2023-02-12T09:46:57;5.20;;;4.32;;
59974;SDS011;62136;-35.664;-63.766;2023-02-12T09:49:41;4.80;;;4.32;;
59974;SDS011;62136;-35.664;-63.766;2023-02-12T09:52:16;5.18;;;4.68;;
59974;SDS011;62136;-35.664;-63.766;2023-02-12T09:57:18;4.85;;;4.45;;
59974;SDS011;62136;-35.664;-63.766;2023-02-12T10:00:00;4.95;;;4.38;;
59974;SDS011;62136;-35.664;-63.766;2023-02-12T10:02:36;4.50;;;4.20;;
59974;SDS011;62136;-35.664;-63.766;2023-02-12T10:05:05;5.00;;;4.45;;
59974;SDS011;62136;-35.664;-63.766;2023-02-12T10:19:05;5.55;;;4.32;;
59974;SDS011;62136;-35.664;-63.766;2023-02-12T10:25:05;4.25;;;3.90;;
59974;SDS011;62136;-35.664;-63.766;2023-02-12T10:27:51;4.65;;;4.35;;
59974;SDS011;62136;-35.664;-63.766;2023-02-12T10:33:22;4.82;;;4.43;;
59974;SDS011;62136;-35.664;-63.766;2023-02-12T10:36:06;4.80;;;4.38;;
59974;SDS011;62136;-35.664;-63.766;2023-02-12T10:39:00;4.00;;;3.70;;
59974;SDS011;62136;-35.664;-63.766;2023-02-12T10:41:32;4.55;;;4.18;;
59974;SDS011;62136;-35.664;-63.766;2023-02-12T10:44:03;5.07;;;4.63;;
59974;SDS011;62136;-35.664;-63.766;2023-02-12T10:46:31;4.68;;;4.28;;
59974;SDS011;62136;-35.664;-63.766;2023-02-12T10:48:58;4.65;;;4.25;;
59974;SDS011;62136;-35.664;-63.766;2023-02-12T10:51:33;4.70;;;4.30;;
59974;SDS011;62136;-35.664;-63.766;2023-02-12T10:57:07;5.07;;;4.40;;
59974;SDS011;62136;-35.664;-63.766;2023-02-12T10:59:40;4.90;;;4.43;;
59974;SDS011;62136;-35.664;-63.766;2023-02-12T11:02:41;4.90;;;4.43;;
59974;SDS011;62136;-35.664;-63.766;2023-02-12T11:05:14;4.80;;;4.40;;
59974;SDS011;62136;-35.664;-63.766;2023-02-12T11:07:49;4.78;;;4.38;;
59974;SDS011;62136;-35.664;-63.766;2023-02-12T11:12:56;4.97;;;4.57;;
59974;SDS011;62136;-35.664;-63.766;2023-02-12T11:15:25;4.90;;;4.40;;
59974;SDS011;62136;-35.664;-63.766;2023-02-12T11:18:03;4.82;;;4.25;;
59974;SDS011;62136;-35.664;-63.766;2023-02-12T11:20:33;4.80;;;4.38;;
59974;SDS011;62136;-35.664;-63.766;2023-02-12T11:23:06;4.78;;;4.40;;
59974;SDS011;62136;-35.664;-63.766;2023-02-12T11:26:32;5.00;;;4.60;;
59974;SDS011;62136;-35.664;-63.766;2023-02-12T11:28:53;5.15;;;4.75;;
59974;SDS011;62136;-35.664;-63.766;2023-02-12T11:31:23;5.25;;;4.57;;
59974;SDS011;62136;-35.664;-63.766;2023-02-12T11:36:34;5.15;;;4.65;;
59974;SDS011;62136;-35.664;-63.766;2023-02-12T11:39:03;5.47;;;4.97;;
59974;SDS011;62136;-35.664;-63.766;2023-02-12T11:41:39;5.50;;;5.00;;
59974;SDS011;62136;-35.664;-63.766;2023-02-12T11:49:29;4.30;;;4.00;;
59974;SDS011;62136;-35.664;-63.766;2023-02-12T11:51:59;5.30;;;4.63;;
59974;SDS011;62136;-35.664;-63.766;2023-02-12T11:54:29;5.32;;;4.65;;
59974;SDS011;62136;-35.664;-63.766;2023-02-12T11:57:01;5.45;;;4.95;;
59974;SDS011;62136;-35.664;-63.766;2023-02-12T12:01:55;5.05;;;4.55;;
59974;SDS011;62136;-35.664;-63.766;2023-02-12T12:04:28;4.87;;;4.40;;
59974;SDS011;62136;-35.664;-63.766;2023-02-12T12:07:20;4.60;;;4.20;;
59974;SDS011;62136;-35.664;-63.766;2023-02-12T12:12:29;5.10;;;4.63;;
59974;SDS011;62136;-35.664;-63.766;2023-02-12T12:15:32;4.70;;;4.28;;
59974;SDS011;62136;-35.664;-63.766;2023-02-12T12:23:44;4.60;;;4.22;;
59974;SDS011;62136;-35.664;-63.766;2023-02-12T12:26:27;4.80;;;4.40;;
59974;SDS011;62136;-35.664;-63.766;2023-02-12T12:29:16;4.45;;;4.15;;
59974;SDS011;62136;-35.664;-63.766;2023-02-12T12:31:59;4.95;;;4.55;;
59974;SDS011;62136;-35.664;-63.766;2023-02-12T12:34:28;4.75;;;4.30;;
59974;SDS011;62136;-35.664;-63.766;2023-02-12T12:40:06;4.95;;;4.55;;
59974;SDS011;62136;-35.664;-63.766;2023-02-12T12:43:07;5.05;;;4.32;;
59974;SDS011;62136;-35.664;-63.766;2023-02-12T12:46:09;5.00;;;4.60;;
59974;SDS011;62136;-35.664;-63.766;2023-02-12T12:54:17;4.47;;;4.18;;
59974;SDS011;62136;-35.664;-63.766;2023-02-12T13:21:34;5.00;;;4.57;;
59974;SDS011;62136;-35.664;-63.766;2023-02-12T13:24:05;4.60;;;4.13;;
59974;SDS011;62136;-35.664;-63.766;2023-02-12T13:26:55;4.55;;;4.15;;
59974;SDS011;62136;-35.664;-63.766;2023-02-12T13:29:25;4.50;;;4.20;;
59974;SDS011;62136;-35.664;-63.766;2023-02-12T13:32:04;4.32;;;3.95;;
59974;SDS011;62136;-35.664;-63.766;2023-02-12T13:34:41;4.43;;;4.03;;
59974;SDS011;62136;-35.664;-63.766;2023-02-12T13:37:14;4.78;;;4.25;;
59974;SDS011;62136;-35.664;-63.766;2023-02-12T13:39:46;4.55;;;4.25;;
59974;SDS011;62136;-35.664;-63.766;2023-02-12T13:51:06;4.72;;;4.32;;
59974;SDS011;62136;-35.664;-63.766;2023-02-12T13:56:19;4.65;;;4.25;;
59974;SDS011;62136;-35.664;-63.766;2023-02-12T13:58:57;4.85;;;4.35;;
59974;SDS011;62136;-35.664;-63.766;2023-02-12T14:01:38;4.43;;;4.03;;
59974;SDS011;62136;-35.664;-63.766;2023-02-12T14:06:59;4.30;;;3.90;;
59974;SDS011;62136;-35.664;-63.766;2023-02-12T14:09:45;4.60;;;4.22;;
59974;SDS011;62136;-35.664;-63.766;2023-02-12T14:14:50;4.47;;;4.07;;
59974;SDS011;62136;-35.664;-63.766;2023-02-12T14:25:45;5.13;;;4.03;;
59974;SDS011;62136;-35.664;-63.766;2023-02-12T14:28:29;4.63;;;4.22;;
59974;SDS011;62136;-35.664;-63.766;2023-02-12T14:41:49;4.40;;;4.05;;
59974;SDS011;62136;-35.664;-63.766;2023-02-12T14:49:27;4.22;;;3.92;;
59974;SDS011;62136;-35.664;-63.766;2023-02-12T14:54:40;4.82;;;4.43;;
59974;SDS011;62136;-35.664;-63.766;2023-02-12T15:02:44;5.10;;;4.70;;
59974;SDS011;62136;-35.664;-63.766;2023-02-12T15:05:36;5.03;;;4.63;;
59974;SDS011;62136;-35.664;-63.766;2023-02-12T15:08:25;5.32;;;4.55;;
59974;SDS011;62136;-35.664;-63.766;2023-02-12T15:11:05;5.13;;;4.63;;
59974;SDS011;62136;-35.664;-63.766;2023-02-12T15:13:59;5.70;;;5.20;;
59974;SDS011;62136;-35.664;-63.766;2023-02-12T15:17:01;4.82;;;4.43;;
59974;SDS011;62136;-35.664;-63.766;2023-02-12T15:20:03;4.85;;;4.45;;
59974;SDS011;62136;-35.664;-63.766;2023-02-12T15:22:38;5.80;;;5.30;;
59974;SDS011;62136;-35.664;-63.766;2023-02-12T15:25:25;5.35;;;4.85;;
59974;SDS011;62136;-35.664;-63.766;2023-02-12T15:30:42;5.32;;;4.82;;
59974;SDS011;62136;-35.664;-63.766;2023-02-12T15:33:15;4.70;;;4.22;;
59974;SDS011;62136;-35.664;-63.766;2023-02-12T15:35:52;4.95;;;4.55;;
59974;SDS011;62136;-35.664;-63.766;2023-02-12T15:38:21;5.45;;;4.95;;
59974;SDS011;62136;-35.664;-63.766;2023-02-12T15:40:57;5.43;;;4.90;;
59974;SDS011;62136;-35.664;-63.766;2023-02-12T15:43:27;5.18;;;4.70;;
59974;SDS011;62136;-35.664;-63.766;2023-02-12T15:45:59;4.97;;;4.57;;
59974;SDS011;62136;-35.664;-63.766;2023-02-12T15:48:30;5.38;;;4.95;;
59974;SDS011;62136;-35.664;-63.766;2023-02-12T15:53:47;5.93;;;5.30;;
59974;SDS011;62136;-35.664;-63.766;2023-02-12T15:56:15;6.82;;;6.18;;
59974;SDS011;62136;-35.664;-63.766;2023-02-12T15:58:49;5.75;;;5.25;;
59974;SDS011;62136;-35.664;-63.766;2023-02-12T16:01:21;5.47;;;5.07;;
59974;SDS011;62136;-35.664;-63.766;2023-02-12T16:03:57;5.37;;;4.93;;
59974;SDS011;62136;-35.664;-63.766;2023-02-12T16:06:27;6.57;;;6.05;;
59974;SDS011;62136;-35.664;-63.766;2023-02-12T16:09:02;6.35;;;5.85;;
59974;SDS011;62136;-35.664;-63.766;2023-02-12T16:11:34;6.63;;;6.03;;
59974;SDS011;62136;-35.664;-63.766;2023-02-12T16:14:03;6.90;;;6.30;;
59974;SDS011;62136;-35.664;-63.766;2023-02-12T16:16:42;7.13;;;6.53;;
59974;SDS011;62136;-35.664;-63.766;2023-02-12T16:19:21;7.50;;;6.45;;
59974;SDS011;62136;-35.664;-63.766;2023-02-12T16:21:55;6.25;;;5.75;;
59974;SDS011;62136;-35.664;-63.766;2023-02-12T16:24:29;7.25;;;6.55;;
59974;SDS011;62136;-35.664;-63.766;2023-02-12T16:27:20;7.25;;;6.47;;
59974;SDS011;62136;-35.664;-63.766;2023-02-12T16:29:54;7.15;;;6.25;;
59974;SDS011;62136;-35.664;-63.766;2023-02-12T16:32:37;6.78;;;6.20;;
59974;SDS011;62136;-35.664;-63.766;2023-02-12T16:35:21;7.10;;;6.50;;
59974;SDS011;62136;-35.664;-63.766;2023-02-12T16:37:50;7.75;;;6.97;;
59974;SDS011;62136;-35.664;-63.766;2023-02-12T16:40:24;7.50;;;6.80;;
59974;SDS011;62136;-35.664;-63.766;2023-02-12T16:47:58;6.32;;;5.75;;
59974;SDS011;62136;-35.664;-63.766;2023-02-12T16:50:28;6.45;;;5.85;;
59974;SDS011;62136;-35.664;-63.766;2023-02-12T16:55:26;9.70;;;8.80;;
59974;SDS011;62136;-35.664;-63.766;2023-02-12T16:57:53;8.75;;;7.95;;
59974;SDS011;62136;-35.664;-63.766;2023-02-12T17:00:20;8.27;;;7.57;;
59974;SDS011;62136;-35.664;-63.766;2023-02-12T17:02:48;8.30;;;7.60;;
59974;SDS011;62136;-35.664;-63.766;2023-02-12T17:05:16;8.25;;;7.50;;
59974;SDS011;62136;-35.664;-63.766;2023-02-12T17:07:43;10.20;;;9.20;;
59974;SDS011;62136;-35.664;-63.766;2023-02-12T17:10:14;8.57;;;7.82;;
59974;SDS011;62136;-35.664;-63.766;2023-02-12T17:12:46;8.75;;;7.95;;
59974;SDS011;62136;-35.664;-63.766;2023-02-12T17:15:59;9.60;;;8.70;;
59974;SDS011;62136;-35.664;-63.766;2023-02-12T17:18:27;8.48;;;7.78;;
59974;SDS011;62136;-35.664;-63.766;2023-02-12T17:26:40;8.85;;;7.95;;
59974;SDS011;62136;-35.664;-63.766;2023-02-12T17:29:07;10.38;;;9.38;;
59974;SDS011;62136;-35.664;-63.766;2023-02-12T17:31:34;8.77;;;7.97;;
59974;SDS011;62136;-35.664;-63.766;2023-02-12T17:34:02;9.02;;;8.07;;
59974;SDS011;62136;-35.664;-63.766;2023-02-12T17:36:30;7.57;;;6.97;;
59974;SDS011;62136;-35.664;-63.766;2023-02-12T17:38:57;8.88;;;7.97;;
59974;SDS011;62136;-35.664;-63.766;2023-02-12T17:41:24;8.35;;;7.55;;
59974;SDS011;62136;-35.664;-63.766;2023-02-12T17:43:51;8.43;;;7.63;;
59974;SDS011;62136;-35.664;-63.766;2023-02-12T17:46:20;8.00;;;7.20;;
59974;SDS011;62136;-35.664;-63.766;2023-02-12T17:48:48;9.05;;;8.15;;
59974;SDS011;62136;-35.664;-63.766;2023-02-12T17:51:15;7.72;;;7.07;;
59974;SDS011;62136;-35.664;-63.766;2023-02-12T17:53:43;8.48;;;7.57;;
59974;SDS011;62136;-35.664;-63.766;2023-02-12T17:56:11;7.72;;;7.03;;
59974;SDS011;62136;-35.664;-63.766;2023-02-12T17:58:40;7.43;;;6.82;;
59974;SDS011;62136;-35.664;-63.766;2023-02-12T18:01:09;8.07;;;7.35;;
59974;SDS011;62136;-35.664;-63.766;2023-02-12T18:03:38;7.70;;;7.00;;
59974;SDS011;62136;-35.664;-63.766;2023-02-12T18:06:06;8.02;;;7.28;;
59974;SDS011;62136;-35.664;-63.766;2023-02-12T18:08:33;7.80;;;7.03;;